<?xml version='1.0' encoding='UTF-8'?><gpx version="1.1" creator="JPX - https://github.com/jenetics/jpx" xmlns="http://www.topografix.com/GPX/1/1"><trk><trkseg><trkpt lat="43.3254991" lon="13.0600613"><ele>1191.0</ele><time>2026-04-06T09:02:30.486Z</time></trkpt><trkpt lat="43.3255201" lon="13.0601492"><ele>1191.0</ele><time>2026-04-06T09:02:37.483Z</time></trkpt><trkpt lat="43.3255161" lon="13.0602416"><ele>1191.0</ele><time>2026-04-06T09:02:44.483Z</time></trkpt><trkpt lat="43.3255617" lon="13.0603194"><ele>1191.0</ele><time>2026-04-06T09:02:50.495Z</time></trkpt><trkpt lat="43.3255996" lon="13.0603921"><ele>1191.0</ele><time>2026-04-06T09:02:56.451Z</time></trkpt><trkpt lat="43.3256333" lon="13.0604783"><ele>1191.0</ele><time>2026-04-06T09:03:03.493Z</time></trkpt><trkpt lat="43.3256657" lon="13.0605689"><ele>1191.0</ele><time>2026-04-06T09:03:09.494Z</time></trkpt><trkpt lat="43.3256725" lon="13.060661"><ele>1191.4285714285716</ele><time>2026-04-06T09:03:15.494Z</time></trkpt><trkpt lat="43.3256651" lon="13.0607481"><ele>1191.857142857143</ele><time>2026-04-06T09:03:21.505Z</time></trkpt><trkpt lat="43.3257203" lon="13.0608163"><ele>1192.2857142857142</ele><time>2026-04-06T09:03:27.502Z</time></trkpt><trkpt lat="43.3257822" lon="13.0608334"><ele>1192.7142857142858</ele><time>2026-04-06T09:03:33.534Z</time></trkpt><trkpt lat="43.3258431" lon="13.0608862"><ele>1193.142857142857</ele><time>2026-04-06T09:03:40.495Z</time></trkpt><trkpt lat="43.3259127" lon="13.0608852"><ele>1193.5714285714287</ele><time>2026-04-06T09:03:56.503Z</time></trkpt><trkpt lat="43.3259741" lon="13.0609087"><ele>1194.0</ele><time>2026-04-06T09:04:02.483Z</time></trkpt><trkpt lat="43.3260324" lon="13.0609489"><ele>1194.0</ele><time>2026-04-06T09:04:15.523Z</time></trkpt><trkpt lat="43.3260976" lon="13.0609391"><ele>1194.0</ele><time>2026-04-06T09:04:29.504Z</time></trkpt><trkpt lat="43.32613" lon="13.0608552"><ele>1194.0</ele><time>2026-04-06T09:04:46.496Z</time></trkpt><trkpt lat="43.3262352" lon="13.060759"><ele>1194.0</ele><time>2026-04-06T09:05:25.495Z</time></trkpt><trkpt lat="43.3262819" lon="13.0606897"><ele>1194.0</ele><time>2026-04-06T09:05:30.518Z</time></trkpt><trkpt lat="43.3263401" lon="13.0606402"><ele>1194.0</ele><time>2026-04-06T09:05:40.494Z</time></trkpt><trkpt lat="43.326403" lon="13.0605626"><ele>1198.857142857143</ele><time>2026-04-06T09:06:04.516Z</time></trkpt><trkpt lat="43.3264552" lon="13.0605104"><ele>1203.7142857142858</ele><time>2026-04-06T09:06:09.513Z</time></trkpt><trkpt lat="43.3265112" lon="13.0604656"><ele>1208.5714285714284</ele><time>2026-04-06T09:06:33.496Z</time></trkpt><trkpt lat="43.3265468" lon="13.0603941"><ele>1213.4285714285716</ele><time>2026-04-06T09:06:44.513Z</time></trkpt><trkpt lat="43.3265685" lon="13.0603058"><ele>1218.2857142857142</ele><time>2026-04-06T09:07:02.482Z</time></trkpt><trkpt lat="43.3266054" lon="13.0602192"><ele>1223.142857142857</ele><time>2026-04-06T09:07:23.483Z</time></trkpt><trkpt lat="43.3266306" lon="13.0601394"><ele>1228.0</ele><time>2026-04-06T09:07:37.496Z</time></trkpt><trkpt lat="43.3266891" lon="13.0601009"><ele>1227.9999999999998</ele><time>2026-04-06T09:07:48.509Z</time></trkpt><trkpt lat="43.3267427" lon="13.0600502"><ele>1228.0</ele><time>2026-04-06T09:07:56.483Z</time></trkpt><trkpt lat="43.3268007" lon="13.0599997"><ele>1228.0</ele><time>2026-04-06T09:08:09.515Z</time></trkpt><trkpt lat="43.3268603" lon="13.0599545"><ele>1228.0</ele><time>2026-04-06T09:08:21.521Z</time></trkpt><trkpt lat="43.3269114" lon="13.0598944"><ele>1228.0</ele><time>2026-04-06T09:08:34.529Z</time></trkpt><trkpt lat="43.3269797" lon="13.0598029"><ele>1227.9999999999998</ele><time>2026-04-06T09:09:06.538Z</time></trkpt><trkpt lat="43.3270353" lon="13.0597599"><ele>1228.0</ele><time>2026-04-06T09:09:27.512Z</time></trkpt><trkpt lat="43.3270712" lon="13.059685"><ele>1227.0</ele><time>2026-04-06T09:09:36.508Z</time></trkpt><trkpt lat="43.3271114" lon="13.0596158"><ele>1226.0</ele><time>2026-04-06T09:09:42.411Z</time></trkpt><trkpt lat="43.3271637" lon="13.0595531"><ele>1225.0</ele><time>2026-04-06T09:09:57.519Z</time></trkpt><trkpt lat="43.3272111" lon="13.0594508"><ele>1224.0</ele><time>2026-04-06T09:10:17.5Z</time></trkpt><trkpt lat="43.3272692" lon="13.0594096"><ele>1223.0</ele><time>2026-04-06T09:10:25.52Z</time></trkpt><trkpt lat="43.3273476" lon="13.0593511"><ele>1222.0</ele><time>2026-04-06T09:11:25.558Z</time></trkpt><trkpt lat="43.327436" lon="13.0593022"><ele>1225.857142857143</ele><time>2026-04-06T09:11:49.495Z</time></trkpt><trkpt lat="43.3275319" lon="13.0592811"><ele>1229.7142857142858</ele><time>2026-04-06T09:12:10.529Z</time></trkpt><trkpt lat="43.3275745" lon="13.0592042"><ele>1233.5714285714284</ele><time>2026-04-06T09:12:18.519Z</time></trkpt><trkpt lat="43.3276086" lon="13.0591241"><ele>1237.4285714285716</ele><time>2026-04-06T09:12:24.521Z</time></trkpt><trkpt lat="43.327645" lon="13.0590526"><ele>1241.2857142857142</ele><time>2026-04-06T09:12:35.496Z</time></trkpt><trkpt lat="43.3276308" lon="13.0589669"><ele>1245.142857142857</ele><time>2026-04-06T09:13:09.482Z</time></trkpt><trkpt lat="43.3276577" lon="13.0588885"><ele>1249.0</ele><time>2026-04-06T09:13:39.482Z</time></trkpt><trkpt lat="43.3277086" lon="13.0588325"><ele>1248.9999999999998</ele><time>2026-04-06T09:13:49.483Z</time></trkpt><trkpt lat="43.3277364" lon="13.0587527"><ele>1249.0</ele><time>2026-04-06T09:13:57.483Z</time></trkpt><trkpt lat="43.3277584" lon="13.0586685"><ele>1249.0</ele><time>2026-04-06T09:14:14.527Z</time></trkpt><trkpt lat="43.3278138" lon="13.0587264"><ele>1249.0</ele><time>2026-04-06T09:14:19.488Z</time></trkpt><trkpt lat="43.3279161" lon="13.0587552"><ele>1249.0</ele><time>2026-04-06T09:14:55.482Z</time></trkpt><trkpt lat="43.3279417" lon="13.0586649"><ele>1248.9999999999998</ele><time>2026-04-06T09:15:07.496Z</time></trkpt><trkpt lat="43.3279723" lon="13.058576"><ele>1249.0</ele><time>2026-04-06T09:15:13.504Z</time></trkpt><trkpt lat="43.3280209" lon="13.0585057"><ele>1248.9999999999998</ele><time>2026-04-06T09:15:19.528Z</time></trkpt><trkpt lat="43.3280592" lon="13.0583997"><ele>1249.0</ele><time>2026-04-06T09:24:54.483Z</time></trkpt><trkpt lat="43.3281137" lon="13.0583451"><ele>1249.0</ele><time>2026-04-06T09:25:01.483Z</time></trkpt><trkpt lat="43.3281786" lon="13.0583538"><ele>1249.0</ele><time>2026-04-06T09:25:09.483Z</time></trkpt><trkpt lat="43.32824" lon="13.058311"><ele>1249.0</ele><time>2026-04-06T09:25:23.483Z</time></trkpt><trkpt lat="43.3282978" lon="13.0582533"><ele>1248.9999999999998</ele><time>2026-04-06T09:25:45.482Z</time></trkpt><trkpt lat="43.328362" lon="13.0582166"><ele>1249.0</ele><time>2026-04-06T09:26:02.483Z</time></trkpt><trkpt lat="43.3284215" lon="13.0581765"><ele>1251.8571428571427</ele><time>2026-04-06T09:26:08.482Z</time></trkpt><trkpt lat="43.3284881" lon="13.0581609"><ele>1254.7142857142858</ele><time>2026-04-06T09:26:20.483Z</time></trkpt><trkpt lat="43.3285571" lon="13.0581114"><ele>1257.5714285714284</ele><time>2026-04-06T09:28:47.518Z</time></trkpt><trkpt lat="43.3285969" lon="13.0581787"><ele>1260.4285714285713</ele><time>2026-04-06T09:29:08.413Z</time></trkpt><trkpt lat="43.3286614" lon="13.0581772"><ele>1263.2857142857142</ele><time>2026-04-06T09:29:41.499Z</time></trkpt><trkpt lat="43.3287206" lon="13.0582101"><ele>1266.142857142857</ele><time>2026-04-06T09:30:03.501Z</time></trkpt><trkpt lat="43.328762" lon="13.0581405"><ele>1269.0</ele><time>2026-04-06T09:30:18.771Z</time></trkpt><trkpt lat="43.3288265" lon="13.058076"><ele>1269.0</ele><time>2026-04-06T09:30:48.512Z</time></trkpt><trkpt lat="43.3288785" lon="13.0580021"><ele>1269.0</ele><time>2026-04-06T09:30:52.483Z</time></trkpt><trkpt lat="43.3289525" lon="13.0579854"><ele>1269.0</ele><time>2026-04-06T09:31:05.527Z</time></trkpt><trkpt lat="43.3290037" lon="13.0579203"><ele>1269.0</ele><time>2026-04-06T09:31:11.483Z</time></trkpt><trkpt lat="43.3290451" lon="13.0578451"><ele>1269.0</ele><time>2026-04-06T09:31:19.505Z</time></trkpt><trkpt lat="43.3290994" lon="13.0577994"><ele>1269.0</ele><time>2026-04-06T09:31:45.499Z</time></trkpt><trkpt lat="43.3291521" lon="13.0577434"><ele>1269.0</ele><time>2026-04-06T09:31:56.536Z</time></trkpt><trkpt lat="43.3292073" lon="13.057698"><ele>1274.4285714285716</ele><time>2026-04-06T09:32:11.497Z</time></trkpt><trkpt lat="43.3292432" lon="13.057625"><ele>1279.8571428571427</ele><time>2026-04-06T09:32:38.524Z</time></trkpt><trkpt lat="43.329297" lon="13.0576703"><ele>1285.2857142857142</ele><time>2026-04-06T09:33:17.496Z</time></trkpt><trkpt lat="43.329294" lon="13.0577628"><ele>1290.7142857142858</ele><time>2026-04-06T09:33:31.481Z</time></trkpt><trkpt lat="43.3292679" lon="13.0578423"><ele>1296.1428571428573</ele><time>2026-04-06T09:33:57.496Z</time></trkpt><trkpt lat="43.3292751" lon="13.0579321"><ele>1301.5714285714284</ele><time>2026-04-06T09:34:19.495Z</time></trkpt><trkpt lat="43.3293394" lon="13.0579311"><ele>1307.0</ele><time>2026-04-06T09:35:57.521Z</time></trkpt><trkpt lat="43.3293955" lon="13.0578851"><ele>1307.0</ele><time>2026-04-06T09:36:12.489Z</time></trkpt><trkpt lat="43.32945" lon="13.0578339"><ele>1307.0</ele><time>2026-04-06T09:36:25.476Z</time></trkpt><trkpt lat="43.3295067" lon="13.0577848"><ele>1307.0</ele><time>2026-04-06T09:36:41.432Z</time></trkpt><trkpt lat="43.3295837" lon="13.0577506"><ele>1307.0</ele><time>2026-04-06T09:36:56.507Z</time></trkpt><trkpt lat="43.3296452" lon="13.0577246"><ele>1307.0</ele><time>2026-04-06T09:37:04.511Z</time></trkpt><trkpt lat="43.329714" lon="13.0576928"><ele>1307.0</ele><time>2026-04-06T09:37:21.496Z</time></trkpt><trkpt lat="43.3297726" lon="13.05766"><ele>1307.0</ele><time>2026-04-06T09:37:46.483Z</time></trkpt><trkpt lat="43.3298141" lon="13.0575947"><ele>1313.5</ele><time>2026-04-06T09:38:04.5Z</time></trkpt><trkpt lat="43.3299288" lon="13.0575384"><ele>1320.0</ele><time>2026-04-06T09:38:44.512Z</time></trkpt><trkpt lat="43.3299879" lon="13.0574986"><ele>1326.5</ele><time>2026-04-06T09:38:59.51Z</time></trkpt><trkpt lat="43.3300554" lon="13.0574671"><ele>1333.0</ele><time>2026-04-06T09:39:10.483Z</time></trkpt><trkpt lat="43.3300559" lon="13.057561"><ele>1339.5</ele><time>2026-04-06T09:39:37.483Z</time></trkpt><trkpt lat="43.3300116" lon="13.0576251"><ele>1346.0</ele><time>2026-04-06T09:39:49.462Z</time></trkpt><trkpt lat="43.3300064" lon="13.0577127"><ele>1346.0</ele><time>2026-04-06T09:40:12.483Z</time></trkpt><trkpt lat="43.3299717" lon="13.0578174"><ele>1346.0</ele><time>2026-04-06T09:40:33.522Z</time></trkpt><trkpt lat="43.3299341" lon="13.0578876"><ele>1346.0</ele><time>2026-04-06T09:40:44.497Z</time></trkpt><trkpt lat="43.3299242" lon="13.0579748"><ele>1346.0</ele><time>2026-04-06T09:41:20.483Z</time></trkpt><trkpt lat="43.3299143" lon="13.0580626"><ele>1346.0</ele><time>2026-04-06T09:41:37.499Z</time></trkpt><trkpt lat="43.3299015" lon="13.0581483"><ele>1346.0</ele><time>2026-04-06T09:41:53.483Z</time></trkpt><trkpt lat="43.3298875" lon="13.0582335"><ele>1346.0</ele><time>2026-04-06T09:42:05.512Z</time></trkpt><trkpt lat="43.3298851" lon="13.0583201"><ele>1343.857142857143</ele><time>2026-04-06T09:42:15.495Z</time></trkpt><trkpt lat="43.3298691" lon="13.0584086"><ele>1341.7142857142856</ele><time>2026-04-06T09:42:27.4Z</time></trkpt><trkpt lat="43.3298283" lon="13.058477"><ele>1339.5714285714284</ele><time>2026-04-06T09:42:45.496Z</time></trkpt><trkpt lat="43.3298078" lon="13.0585602"><ele>1337.4285714285716</ele><time>2026-04-06T09:43:59.495Z</time></trkpt><trkpt lat="43.3297994" lon="13.0586465"><ele>1335.2857142857142</ele><time>2026-04-06T09:44:21.504Z</time></trkpt><trkpt lat="43.3297858" lon="13.058731"><ele>1333.142857142857</ele><time>2026-04-06T09:44:30.437Z</time></trkpt><trkpt lat="43.3297511" lon="13.0588159"><ele>1331.0</ele><time>2026-04-06T09:44:37.483Z</time></trkpt><trkpt lat="43.3297081" lon="13.0588808"><ele>1331.0</ele><time>2026-04-06T09:44:43.522Z</time></trkpt><trkpt lat="43.329723" lon="13.0589691"><ele>1331.0</ele><time>2026-04-06T09:44:55.488Z</time></trkpt><trkpt lat="43.3297177" lon="13.0590725"><ele>1331.0</ele><time>2026-04-06T09:46:17.495Z</time></trkpt><trkpt lat="43.3296876" lon="13.0591503"><ele>1331.0</ele><time>2026-04-06T09:46:23.486Z</time></trkpt><trkpt lat="43.3296791" lon="13.0592442"><ele>1331.0</ele><time>2026-04-06T09:46:35.507Z</time></trkpt><trkpt lat="43.3296076" lon="13.0593331"><ele>1331.0</ele><time>2026-04-06T09:46:55.482Z</time></trkpt><trkpt lat="43.3295612" lon="13.0594017"><ele>1331.0</ele><time>2026-04-06T09:47:00.499Z</time></trkpt><trkpt lat="43.3295221" lon="13.0594727"><ele>1333.857142857143</ele><time>2026-04-06T09:47:13.529Z</time></trkpt><trkpt lat="43.3294835" lon="13.059561"><ele>1336.7142857142858</ele><time>2026-04-06T09:47:29.506Z</time></trkpt><trkpt lat="43.3294567" lon="13.0596555"><ele>1339.5714285714284</ele><time>2026-04-06T09:47:36.392Z</time></trkpt><trkpt lat="43.3294514" lon="13.0597467"><ele>1342.4285714285716</ele><time>2026-04-06T09:47:45.533Z</time></trkpt><trkpt lat="43.3294257" lon="13.0598429"><ele>1345.2857142857142</ele><time>2026-04-06T09:49:30.482Z</time></trkpt><trkpt lat="43.3294051" lon="13.05993"><ele>1348.142857142857</ele><time>2026-04-06T09:49:39.496Z</time></trkpt><trkpt lat="43.3293796" lon="13.0600142"><ele>1351.0</ele><time>2026-04-06T09:49:51.534Z</time></trkpt><trkpt lat="43.3293528" lon="13.0600944"><ele>1354.0</ele><time>2026-04-06T09:50:01.524Z</time></trkpt><trkpt lat="43.329313" lon="13.0601672"><ele>1357.0</ele><time>2026-04-06T09:50:13.483Z</time></trkpt><trkpt lat="43.3292615" lon="13.0602667"><ele>1360.0</ele><time>2026-04-06T09:50:31.483Z</time></trkpt><trkpt lat="43.3292203" lon="13.0603407"><ele>1363.0</ele><time>2026-04-06T09:50:38.483Z</time></trkpt><trkpt lat="43.3292112" lon="13.0604349"><ele>1366.0</ele><time>2026-04-06T09:50:46.414Z</time></trkpt><trkpt lat="43.3292287" lon="13.0605274"><ele>1369.0</ele><time>2026-04-06T09:50:54.482Z</time></trkpt><trkpt lat="43.3291992" lon="13.0606281"><ele>1372.0</ele><time>2026-04-06T09:51:20.483Z</time></trkpt><trkpt lat="43.3291646" lon="13.0607109"><ele>1375.1666666666665</ele><time>2026-04-06T09:51:25.505Z</time></trkpt><trkpt lat="43.3292106" lon="13.0608015"><ele>1378.3333333333333</ele><time>2026-04-06T09:51:39.512Z</time></trkpt><trkpt lat="43.3292417" lon="13.0608886"><ele>1381.5</ele><time>2026-04-06T09:51:44.525Z</time></trkpt><trkpt lat="43.3292318" lon="13.0609746"><ele>1384.6666666666667</ele><time>2026-04-06T09:52:18.526Z</time></trkpt><trkpt lat="43.3292444" lon="13.0610629"><ele>1387.8333333333335</ele><time>2026-04-06T09:52:46.482Z</time></trkpt><trkpt lat="43.3291698" lon="13.0611344"><ele>1391.0</ele><time>2026-04-06T09:55:08.482Z</time></trkpt><trkpt lat="43.3292324" lon="13.0612277"><ele>1391.0</ele><time>2026-04-06T09:55:51.482Z</time></trkpt><trkpt lat="43.3292993" lon="13.0612213"><ele>1391.0</ele><time>2026-04-06T09:56:04.482Z</time></trkpt><trkpt lat="43.3293539" lon="13.0611724"><ele>1391.0</ele><time>2026-04-06T09:56:18.488Z</time></trkpt><trkpt lat="43.3294141" lon="13.061141"><ele>1391.0</ele><time>2026-04-06T09:56:31.483Z</time></trkpt><trkpt lat="43.3294791" lon="13.0610789"><ele>1391.0</ele><time>2026-04-06T09:56:51.496Z</time></trkpt><trkpt lat="43.3295176" lon="13.0610098"><ele>1391.0</ele><time>2026-04-06T09:57:10.483Z</time></trkpt><trkpt lat="43.329566" lon="13.0609505"><ele>1391.0</ele><time>2026-04-06T09:57:21.496Z</time></trkpt><trkpt lat="43.329626" lon="13.0609092"><ele>1391.0</ele><time>2026-04-06T09:57:36.519Z</time></trkpt><trkpt lat="43.3296894" lon="13.0608775"><ele>1391.0</ele><time>2026-04-06T09:57:49.496Z</time></trkpt><trkpt lat="43.3297531" lon="13.0608431"><ele>1391.0</ele><time>2026-04-06T09:58:11.502Z</time></trkpt><trkpt lat="43.3298132" lon="13.0608035"><ele>1391.0</ele><time>2026-04-06T09:58:22.197Z</time></trkpt><trkpt lat="43.329874" lon="13.0607749"><ele>1391.0</ele><time>2026-04-06T09:58:33.511Z</time></trkpt><trkpt lat="43.3299328" lon="13.0607411"><ele>1391.0</ele><time>2026-04-06T09:58:51.501Z</time></trkpt><trkpt lat="43.3299972" lon="13.0607064"><ele>1391.0</ele><time>2026-04-06T09:59:05.483Z</time></trkpt><trkpt lat="43.3300516" lon="13.0606599"><ele>1396.1666666666667</ele><time>2026-04-06T09:59:21.483Z</time></trkpt><trkpt lat="43.3301068" lon="13.0606128"><ele>1401.3333333333335</ele><time>2026-04-06T09:59:36.452Z</time></trkpt><trkpt lat="43.330208" lon="13.0605519"><ele>1406.5</ele><time>2026-04-06T10:00:05.483Z</time></trkpt><trkpt lat="43.3302851" lon="13.0604845"><ele>1411.6666666666667</ele><time>2026-04-06T10:00:52.431Z</time></trkpt><trkpt lat="43.3303504" lon="13.0604473"><ele>1416.8333333333333</ele><time>2026-04-06T10:01:00.483Z</time></trkpt><trkpt lat="43.3304033" lon="13.0603993"><ele>1422.0</ele><time>2026-04-06T10:01:14.483Z</time></trkpt><trkpt lat="43.3304735" lon="13.060338"><ele>1422.0</ele><time>2026-04-06T10:01:28.516Z</time></trkpt><trkpt lat="43.3305334" lon="13.0602912"><ele>1422.0</ele><time>2026-04-06T10:01:40.478Z</time></trkpt><trkpt lat="43.3305909" lon="13.0602557"><ele>1422.0</ele><time>2026-04-06T10:02:02.433Z</time></trkpt><trkpt lat="43.3306708" lon="13.0601837"><ele>1422.0</ele><time>2026-04-06T10:02:45.509Z</time></trkpt><trkpt lat="43.3307234" lon="13.0601121"><ele>1422.0</ele><time>2026-04-06T10:02:54.503Z</time></trkpt><trkpt lat="43.330802" lon="13.0600937"><ele>1422.0</ele><time>2026-04-06T10:03:08.517Z</time></trkpt><trkpt lat="43.3308736" lon="13.0601091"><ele>1425.5714285714287</ele><time>2026-04-06T10:03:25.51Z</time></trkpt><trkpt lat="43.3309361" lon="13.0600796"><ele>1429.142857142857</ele><time>2026-04-06T10:03:36.501Z</time></trkpt><trkpt lat="43.3309984" lon="13.0600671"><ele>1432.7142857142858</ele><time>2026-04-06T10:03:53.483Z</time></trkpt><trkpt lat="43.3310579" lon="13.0600363"><ele>1436.2857142857142</ele><time>2026-04-06T10:04:04.409Z</time></trkpt><trkpt lat="43.3311448" lon="13.0600109"><ele>1439.857142857143</ele><time>2026-04-06T10:04:23.493Z</time></trkpt><trkpt lat="43.3312039" lon="13.0599805"><ele>1443.4285714285713</ele><time>2026-04-06T10:04:39.483Z</time></trkpt><trkpt lat="43.3312528" lon="13.0599241"><ele>1447.0</ele><time>2026-04-06T10:28:13.483Z</time></trkpt><trkpt lat="43.3311887" lon="13.0599535"><ele>1448.7142857142856</ele><time>2026-04-06T10:32:08.482Z</time></trkpt><trkpt lat="43.3311185" lon="13.059967"><ele>1450.4285714285716</ele><time>2026-04-06T10:32:16.496Z</time></trkpt><trkpt lat="43.3310542" lon="13.0599672"><ele>1452.142857142857</ele><time>2026-04-06T10:32:40.483Z</time></trkpt><trkpt lat="43.331014" lon="13.0600395"><ele>1453.8571428571427</ele><time>2026-04-06T10:33:53.517Z</time></trkpt><trkpt lat="43.330966" lon="13.0600956"><ele>1455.5714285714284</ele><time>2026-04-06T10:34:00.507Z</time></trkpt><trkpt lat="43.3309224" lon="13.0601679"><ele>1457.2857142857142</ele><time>2026-04-06T10:34:08.482Z</time></trkpt><trkpt lat="43.3308458" lon="13.0601906"><ele>1459.0</ele><time>2026-04-06T10:34:32.483Z</time></trkpt><trkpt lat="43.3307747" lon="13.0601952"><ele>1458.9999999999998</ele><time>2026-04-06T10:34:39.483Z</time></trkpt><trkpt lat="43.3307096" lon="13.0602023"><ele>1459.0</ele><time>2026-04-06T10:34:47.482Z</time></trkpt><trkpt lat="43.3306553" lon="13.0602632"><ele>1459.0</ele><time>2026-04-06T10:35:04.496Z</time></trkpt><trkpt lat="43.3305894" lon="13.0603062"><ele>1459.0</ele><time>2026-04-06T10:35:11.496Z</time></trkpt><trkpt lat="43.3305206" lon="13.0603181"><ele>1459.0</ele><time>2026-04-06T10:35:19.524Z</time></trkpt><trkpt lat="43.3304604" lon="13.0603762"><ele>1458.9999999999998</ele><time>2026-04-06T10:36:03.495Z</time></trkpt><trkpt lat="43.3304106" lon="13.0604357"><ele>1459.0</ele><time>2026-04-06T10:36:10.5Z</time></trkpt><trkpt lat="43.3303599" lon="13.060491"><ele>1453.7142857142856</ele><time>2026-04-06T10:36:17.5Z</time></trkpt><trkpt lat="43.3302954" lon="13.0605188"><ele>1448.4285714285713</ele><time>2026-04-06T10:36:26.483Z</time></trkpt><trkpt lat="43.330231" lon="13.060552"><ele>1443.142857142857</ele><time>2026-04-06T10:36:48.483Z</time></trkpt><trkpt lat="43.3301721" lon="13.0605996"><ele>1437.8571428571427</ele><time>2026-04-06T10:36:57.496Z</time></trkpt><trkpt lat="43.3301095" lon="13.0606372"><ele>1432.5714285714284</ele><time>2026-04-06T10:37:06.49Z</time></trkpt><trkpt lat="43.3300523" lon="13.0606809"><ele>1427.2857142857142</ele><time>2026-04-06T10:37:24.487Z</time></trkpt><trkpt lat="43.329999" lon="13.060727"><ele>1422.0</ele><time>2026-04-06T10:37:34.494Z</time></trkpt><trkpt lat="43.3299403" lon="13.0607709"><ele>1424.1666666666667</ele><time>2026-04-06T10:37:44.456Z</time></trkpt><trkpt lat="43.3298579" lon="13.0608042"><ele>1426.3333333333333</ele><time>2026-04-06T10:38:02.483Z</time></trkpt><trkpt lat="43.3297981" lon="13.0608559"><ele>1428.5</ele><time>2026-04-06T10:38:12.501Z</time></trkpt><trkpt lat="43.3297276" lon="13.0608577"><ele>1430.6666666666665</ele><time>2026-04-06T10:38:20.533Z</time></trkpt><trkpt lat="43.3296669" lon="13.0608891"><ele>1432.8333333333333</ele><time>2026-04-06T10:38:31.517Z</time></trkpt><trkpt lat="43.3295962" lon="13.0609625"><ele>1435.0</ele><time>2026-04-06T10:39:29.483Z</time></trkpt><trkpt lat="43.32953" lon="13.0610203"><ele>1428.7142857142858</ele><time>2026-04-06T10:39:58.483Z</time></trkpt><trkpt lat="43.3294851" lon="13.0610895"><ele>1422.4285714285716</ele><time>2026-04-06T10:40:07.482Z</time></trkpt><trkpt lat="43.3294314" lon="13.061144"><ele>1416.142857142857</ele><time>2026-04-06T10:40:18.483Z</time></trkpt><trkpt lat="43.3293696" lon="13.0611665"><ele>1409.857142857143</ele><time>2026-04-06T10:40:34.483Z</time></trkpt><trkpt lat="43.3293105" lon="13.0612157"><ele>1403.5714285714287</ele><time>2026-04-06T10:40:46.483Z</time></trkpt><trkpt lat="43.3292475" lon="13.0612301"><ele>1397.2857142857142</ele><time>2026-04-06T10:41:09.483Z</time></trkpt><trkpt lat="43.3291875" lon="13.0611966"><ele>1391.0</ele><time>2026-04-06T10:41:35.483Z</time></trkpt><trkpt lat="43.3291852" lon="13.0611035"><ele>1391.0</ele><time>2026-04-06T10:42:47.482Z</time></trkpt><trkpt lat="43.3292174" lon="13.061011"><ele>1391.0</ele><time>2026-04-06T10:44:03.482Z</time></trkpt><trkpt lat="43.3292084" lon="13.0609229"><ele>1391.0</ele><time>2026-04-06T10:44:22.483Z</time></trkpt><trkpt lat="43.3291989" lon="13.060831"><ele>1391.0</ele><time>2026-04-06T10:44:29.482Z</time></trkpt><trkpt lat="43.3291942" lon="13.0607395"><ele>1391.0</ele><time>2026-04-06T10:44:57.483Z</time></trkpt><trkpt lat="43.329189" lon="13.0606512"><ele>1391.0</ele><time>2026-04-06T10:45:05.483Z</time></trkpt><trkpt lat="43.3292007" lon="13.0605636"><ele>1391.0</ele><time>2026-04-06T10:45:19.483Z</time></trkpt><trkpt lat="43.3291924" lon="13.0604608"><ele>1388.2857142857142</ele><time>2026-04-06T10:45:49.482Z</time></trkpt><trkpt lat="43.3292001" lon="13.0603723"><ele>1385.5714285714287</ele><time>2026-04-06T10:45:58.482Z</time></trkpt><trkpt lat="43.3292125" lon="13.0602855"><ele>1382.857142857143</ele><time>2026-04-06T10:46:06.483Z</time></trkpt><trkpt lat="43.3292434" lon="13.0602071"><ele>1380.142857142857</ele><time>2026-04-06T10:46:14.482Z</time></trkpt><trkpt lat="43.3292831" lon="13.0601359"><ele>1377.4285714285716</ele><time>2026-04-06T10:48:24.452Z</time></trkpt><trkpt lat="43.3293179" lon="13.0600559"><ele>1374.7142857142858</ele><time>2026-04-06T10:48:37.49Z</time></trkpt><trkpt lat="43.3293541" lon="13.0599652"><ele>1372.0</ele><time>2026-04-06T10:48:55.495Z</time></trkpt><trkpt lat="43.3293958" lon="13.0598926"><ele>1369.0</ele><time>2026-04-06T10:49:56.483Z</time></trkpt><trkpt lat="43.3294219" lon="13.0598046"><ele>1366.0</ele><time>2026-04-06T10:50:03.482Z</time></trkpt><trkpt lat="43.3294312" lon="13.0597105"><ele>1363.0</ele><time>2026-04-06T10:50:09.492Z</time></trkpt><trkpt lat="43.3294325" lon="13.0596104"><ele>1360.0</ele><time>2026-04-06T10:50:19.496Z</time></trkpt><trkpt lat="43.3294911" lon="13.0595544"><ele>1357.0</ele><time>2026-04-06T10:50:32.496Z</time></trkpt><trkpt lat="43.3294943" lon="13.0594647"><ele>1354.0</ele><time>2026-04-06T10:50:36.496Z</time></trkpt><trkpt lat="43.3295272" lon="13.059384"><ele>1351.0</ele><time>2026-04-06T10:50:42.475Z</time></trkpt><trkpt lat="43.3295899" lon="13.0592848"><ele>1351.0</ele><time>2026-04-06T10:51:38.496Z</time></trkpt><trkpt lat="43.3296163" lon="13.0592048"><ele>1351.0</ele><time>2026-04-06T10:51:50.515Z</time></trkpt><trkpt lat="43.3296561" lon="13.0591371"><ele>1351.0</ele><time>2026-04-06T10:51:58.496Z</time></trkpt><trkpt lat="43.3296696" lon="13.0590508"><ele>1351.0</ele><time>2026-04-06T10:52:04.515Z</time></trkpt><trkpt lat="43.32971" lon="13.05897"><ele>1351.0</ele><time>2026-04-06T10:52:18.496Z</time></trkpt><trkpt lat="43.3297061" lon="13.0588797"><ele>1351.0</ele><time>2026-04-06T10:52:26.52Z</time></trkpt><trkpt lat="43.3297458" lon="13.0588074"><ele>1351.0</ele><time>2026-04-06T10:52:35.496Z</time></trkpt><trkpt lat="43.3297497" lon="13.0587138"><ele>1350.2857142857142</ele><time>2026-04-06T10:52:41.496Z</time></trkpt><trkpt lat="43.3297486" lon="13.0586215"><ele>1349.5714285714284</ele><time>2026-04-06T10:52:48.496Z</time></trkpt><trkpt lat="43.3297613" lon="13.058532"><ele>1348.857142857143</ele><time>2026-04-06T10:52:59.495Z</time></trkpt><trkpt lat="43.3298093" lon="13.0584637"><ele>1348.142857142857</ele><time>2026-04-06T10:53:09.499Z</time></trkpt><trkpt lat="43.329848" lon="13.0583843"><ele>1347.4285714285713</ele><time>2026-04-06T10:53:16.508Z</time></trkpt><trkpt lat="43.3298425" lon="13.0582949"><ele>1346.7142857142858</ele><time>2026-04-06T10:53:22.496Z</time></trkpt><trkpt lat="43.32987" lon="13.0582094"><ele>1346.0</ele><time>2026-04-06T10:53:29.496Z</time></trkpt><trkpt lat="43.3298687" lon="13.0581217"><ele>1346.0</ele><time>2026-04-06T10:53:41.496Z</time></trkpt><trkpt lat="43.3299176" lon="13.0580556"><ele>1346.0</ele><time>2026-04-06T10:54:00.496Z</time></trkpt><trkpt lat="43.3299177" lon="13.0579642"><ele>1346.0</ele><time>2026-04-06T10:54:08.496Z</time></trkpt><trkpt lat="43.3299354" lon="13.0578777"><ele>1346.0</ele><time>2026-04-06T10:54:18.509Z</time></trkpt><trkpt lat="43.3299743" lon="13.0577741"><ele>1346.0</ele><time>2026-04-06T10:55:04.495Z</time></trkpt><trkpt lat="43.3299753" lon="13.0576618"><ele>1346.0</ele><time>2026-04-06T10:55:37.484Z</time></trkpt><trkpt lat="43.3300029" lon="13.0575751"><ele>1346.0</ele><time>2026-04-06T10:55:47.474Z</time></trkpt><trkpt lat="43.3300533" lon="13.057521"><ele>1346.0</ele><time>2026-04-06T10:55:56.51Z</time></trkpt><trkpt lat="43.3299889" lon="13.0575168"><ele>1346.0</ele><time>2026-04-06T10:56:34.472Z</time></trkpt><trkpt lat="43.3299284" lon="13.0575636"><ele>1346.0</ele><time>2026-04-06T10:56:43.474Z</time></trkpt><trkpt lat="43.3298643" lon="13.0575805"><ele>1346.0</ele><time>2026-04-06T10:56:52.315Z</time></trkpt><trkpt lat="43.3297989" lon="13.0576039"><ele>1346.0</ele><time>2026-04-06T10:56:59.523Z</time></trkpt><trkpt lat="43.3297439" lon="13.0576613"><ele>1346.0</ele><time>2026-04-06T10:58:09.473Z</time></trkpt><trkpt lat="43.3296818" lon="13.0577068"><ele>1346.0</ele><time>2026-04-06T10:58:19.476Z</time></trkpt><trkpt lat="43.3296172" lon="13.0577738"><ele>1340.4285714285716</ele><time>2026-04-06T10:58:49.438Z</time></trkpt><trkpt lat="43.3295001" lon="13.0578135"><ele>1334.8571428571427</ele><time>2026-04-06T10:59:09.511Z</time></trkpt><trkpt lat="43.3294389" lon="13.0578485"><ele>1329.2857142857142</ele><time>2026-04-06T10:59:16.472Z</time></trkpt><trkpt lat="43.3293788" lon="13.0578791"><ele>1323.7142857142858</ele><time>2026-04-06T10:59:40.49Z</time></trkpt><trkpt lat="43.3293316" lon="13.0579389"><ele>1318.1428571428573</ele><time>2026-04-06T10:59:47.493Z</time></trkpt><trkpt lat="43.3292781" lon="13.0579941"><ele>1312.5714285714284</ele><time>2026-04-06T10:59:54.507Z</time></trkpt><trkpt lat="43.3292465" lon="13.0579178"><ele>1307.0</ele><time>2026-04-06T11:00:38.436Z</time></trkpt><trkpt lat="43.3292546" lon="13.0578188"><ele>1307.0</ele><time>2026-04-06T11:00:49.473Z</time></trkpt><trkpt lat="43.3292853" lon="13.0577157"><ele>1307.0</ele><time>2026-04-06T11:01:13.473Z</time></trkpt><trkpt lat="43.3293098" lon="13.057617"><ele>1307.0</ele><time>2026-04-06T11:01:32.475Z</time></trkpt><trkpt lat="43.3292468" lon="13.057635"><ele>1307.0</ele><time>2026-04-06T11:01:40.475Z</time></trkpt><trkpt lat="43.3291957" lon="13.0576968"><ele>1307.0</ele><time>2026-04-06T11:02:43.472Z</time></trkpt><trkpt lat="43.3291369" lon="13.0577503"><ele>1307.0</ele><time>2026-04-06T11:02:46.497Z</time></trkpt><trkpt lat="43.3290884" lon="13.0578146"><ele>1307.0</ele><time>2026-04-06T11:02:58.474Z</time></trkpt><trkpt lat="43.3290339" lon="13.0578623"><ele>1307.0</ele><time>2026-04-06T11:03:02.512Z</time></trkpt><trkpt lat="43.3289863" lon="13.0579375"><ele>1307.0</ele><time>2026-04-06T11:03:08.472Z</time></trkpt><trkpt lat="43.328939" lon="13.0579965"><ele>1307.0</ele><time>2026-04-06T11:03:17.39Z</time></trkpt><trkpt lat="43.3289133" lon="13.0580881"><ele>1307.0</ele><time>2026-04-06T11:03:44.474Z</time></trkpt><trkpt lat="43.3288849" lon="13.0581681"><ele>1307.0</ele><time>2026-04-06T11:03:53.512Z</time></trkpt><trkpt lat="43.3288319" lon="13.0582337"><ele>1307.0</ele><time>2026-04-06T11:03:59.499Z</time></trkpt><trkpt lat="43.3287741" lon="13.0581992"><ele>1307.0</ele><time>2026-04-06T11:04:17.494Z</time></trkpt><trkpt lat="43.3287102" lon="13.0581893"><ele>1301.5714285714284</ele><time>2026-04-06T11:04:33.485Z</time></trkpt><trkpt lat="43.3286734" lon="13.0581184"><ele>1296.1428571428573</ele><time>2026-04-06T11:04:40.11Z</time></trkpt><trkpt lat="43.3286106" lon="13.0580914"><ele>1290.7142857142858</ele><time>2026-04-06T11:05:07.496Z</time></trkpt><trkpt lat="43.3285565" lon="13.058138"><ele>1285.2857142857142</ele><time>2026-04-06T11:05:15.473Z</time></trkpt><trkpt lat="43.3284875" lon="13.0581389"><ele>1279.8571428571427</ele><time>2026-04-06T11:05:55.484Z</time></trkpt><trkpt lat="43.3284167" lon="13.0581376"><ele>1274.4285714285716</ele><time>2026-04-06T11:06:00.499Z</time></trkpt><trkpt lat="43.3283496" lon="13.0581499"><ele>1269.0</ele><time>2026-04-06T11:06:04.495Z</time></trkpt><trkpt lat="43.3283082" lon="13.0582198"><ele>1271.857142857143</ele><time>2026-04-06T11:06:10.473Z</time></trkpt><trkpt lat="43.3282792" lon="13.0583068"><ele>1274.7142857142856</ele><time>2026-04-06T11:06:19.47Z</time></trkpt><trkpt lat="43.3282282" lon="13.058374"><ele>1277.5714285714284</ele><time>2026-04-06T11:06:29.473Z</time></trkpt><trkpt lat="43.3281479" lon="13.0583425"><ele>1280.4285714285716</ele><time>2026-04-06T11:06:37.4Z</time></trkpt><trkpt lat="43.3280874" lon="13.0583773"><ele>1283.2857142857142</ele><time>2026-04-06T11:06:43.409Z</time></trkpt><trkpt lat="43.328038" lon="13.0584373"><ele>1286.142857142857</ele><time>2026-04-06T11:06:54.029Z</time></trkpt><trkpt lat="43.3279955" lon="13.0585014"><ele>1289.0</ele><time>2026-04-06T11:08:25.472Z</time></trkpt><trkpt lat="43.3279559" lon="13.0585768"><ele>1283.2857142857142</ele><time>2026-04-06T11:09:46.475Z</time></trkpt><trkpt lat="43.3279109" lon="13.0586524"><ele>1277.5714285714284</ele><time>2026-04-06T11:09:53.473Z</time></trkpt><trkpt lat="43.3278623" lon="13.0587269"><ele>1271.8571428571427</ele><time>2026-04-06T11:10:02.473Z</time></trkpt><trkpt lat="43.3278313" lon="13.0588064"><ele>1266.142857142857</ele><time>2026-04-06T11:10:07.505Z</time></trkpt><trkpt lat="43.3277721" lon="13.0588398"><ele>1260.4285714285713</ele><time>2026-04-06T11:10:15.507Z</time></trkpt><trkpt lat="43.3277168" lon="13.0589043"><ele>1254.7142857142856</ele><time>2026-04-06T11:10:34.473Z</time></trkpt><trkpt lat="43.3276663" lon="13.0589809"><ele>1249.0</ele><time>2026-04-06T11:10:54.472Z</time></trkpt><trkpt lat="43.3275935" lon="13.0590821"><ele>1248.9999999999998</ele><time>2026-04-06T11:11:03.393Z</time></trkpt><trkpt lat="43.3275283" lon="13.0591041"><ele>1249.0</ele><time>2026-04-06T11:11:13.511Z</time></trkpt><trkpt lat="43.3274638" lon="13.0591294"><ele>1249.0</ele><time>2026-04-06T11:11:21.472Z</time></trkpt><trkpt lat="43.3274132" lon="13.0592212"><ele>1249.0</ele><time>2026-04-06T11:11:29.492Z</time></trkpt><trkpt lat="43.3273765" lon="13.0592924"><ele>1249.0</ele><time>2026-04-06T11:11:37.472Z</time></trkpt><trkpt lat="43.3273342" lon="13.0593623"><ele>1248.9999999999998</ele><time>2026-04-06T11:11:44.472Z</time></trkpt><trkpt lat="43.3273129" lon="13.0594539"><ele>1249.0</ele><time>2026-04-06T11:13:29.474Z</time></trkpt><trkpt lat="43.3272775" lon="13.059531"><ele>1250.142857142857</ele><time>2026-04-06T11:13:35.485Z</time></trkpt><trkpt lat="43.3272285" lon="13.0595932"><ele>1251.2857142857142</ele><time>2026-04-06T11:13:48.471Z</time></trkpt><trkpt lat="43.3271589" lon="13.0596097"><ele>1252.4285714285716</ele><time>2026-04-06T11:13:56.515Z</time></trkpt><trkpt lat="43.3271003" lon="13.0596591"><ele>1253.5714285714284</ele><time>2026-04-06T11:14:00.497Z</time></trkpt><trkpt lat="43.3270551" lon="13.0597254"><ele>1254.7142857142858</ele><time>2026-04-06T11:14:08.493Z</time></trkpt><trkpt lat="43.3270265" lon="13.0598191"><ele>1255.857142857143</ele><time>2026-04-06T11:14:15.533Z</time></trkpt><trkpt lat="43.3269705" lon="13.0598679"><ele>1257.0</ele><time>2026-04-06T11:14:22.47Z</time></trkpt><trkpt lat="43.326874" lon="13.0599339"><ele>1252.857142857143</ele><time>2026-04-06T11:14:41.543Z</time></trkpt><trkpt lat="43.3267983" lon="13.0599589"><ele>1248.7142857142858</ele><time>2026-04-06T11:14:49.472Z</time></trkpt><trkpt lat="43.3267431" lon="13.0600075"><ele>1244.5714285714284</ele><time>2026-04-06T11:14:54.474Z</time></trkpt><trkpt lat="43.326709" lon="13.0600883"><ele>1240.4285714285716</ele><time>2026-04-06T11:15:03.499Z</time></trkpt><trkpt lat="43.3266812" lon="13.0601683"><ele>1236.2857142857142</ele><time>2026-04-06T11:15:15.484Z</time></trkpt><trkpt lat="43.3266456" lon="13.0602576"><ele>1232.142857142857</ele><time>2026-04-06T11:15:19.47Z</time></trkpt><trkpt lat="43.3266146" lon="13.0603341"><ele>1228.0</ele><time>2026-04-06T11:15:31.479Z</time></trkpt><trkpt lat="43.3265891" lon="13.0604141"><ele>1227.9999999999998</ele><time>2026-04-06T11:15:34.506Z</time></trkpt><trkpt lat="43.3265276" lon="13.0604647"><ele>1228.0</ele><time>2026-04-06T11:15:45.518Z</time></trkpt><trkpt lat="43.3264771" lon="13.0605272"><ele>1228.0</ele><time>2026-04-06T11:15:50.496Z</time></trkpt><trkpt lat="43.3264127" lon="13.0604504"><ele>1228.0</ele><time>2026-04-06T11:18:34.47Z</time></trkpt><trkpt lat="43.3263856" lon="13.0603625"><ele>1228.0</ele><time>2026-04-06T11:18:41.455Z</time></trkpt><trkpt lat="43.3263289" lon="13.0602656"><ele>1227.9999999999998</ele><time>2026-04-06T11:18:57.471Z</time></trkpt><trkpt lat="43.32628" lon="13.0602096"><ele>1228.0</ele><time>2026-04-06T11:19:04.471Z</time></trkpt><trkpt lat="43.3262259" lon="13.0601549"><ele>1222.3333333333333</ele><time>2026-04-06T11:19:29.47Z</time></trkpt><trkpt lat="43.326158" lon="13.0601515"><ele>1216.6666666666665</ele><time>2026-04-06T11:19:51.471Z</time></trkpt><trkpt lat="43.3260991" lon="13.0600997"><ele>1211.0</ele><time>2026-04-06T11:19:56.473Z</time></trkpt><trkpt lat="43.326045" lon="13.0600501"><ele>1205.3333333333333</ele><time>2026-04-06T11:20:08.435Z</time></trkpt><trkpt lat="43.3259838" lon="13.060085"><ele>1199.6666666666667</ele><time>2026-04-06T11:20:15.494Z</time></trkpt><trkpt lat="43.3259378" lon="13.0599102"><ele>1194.0</ele><time>2026-04-06T11:20:25.439Z</time></trkpt><trkpt lat="43.3259372" lon="13.0598164"><ele>1193.4285714285716</ele><time>2026-04-06T11:20:29.493Z</time></trkpt><trkpt lat="43.325882" lon="13.059773"><ele>1192.857142857143</ele><time>2026-04-06T11:20:33.47Z</time></trkpt><trkpt lat="43.3258113" lon="13.0597374"><ele>1192.2857142857142</ele><time>2026-04-06T11:20:37.47Z</time></trkpt><trkpt lat="43.3257456" lon="13.0597425"><ele>1191.7142857142858</ele><time>2026-04-06T11:20:41.47Z</time></trkpt><trkpt lat="43.325683" lon="13.0597609"><ele>1191.142857142857</ele><time>2026-04-06T11:20:45.493Z</time></trkpt><trkpt lat="43.3256167" lon="13.0597593"><ele>1190.5714285714287</ele><time>2026-04-06T11:20:50.491Z</time></trkpt><trkpt lat="43.3255396" lon="13.0597325"><ele>1190.0</ele><time>2026-04-06T11:20:56.507Z</time></trkpt><trkpt lat="43.3254713" lon="13.0597621"><ele>1189.0</ele><time>2026-04-06T11:22:35.497Z</time></trkpt></trkseg></trk></gpx>